sensor_id;sensor_type;location;lat;lon;timestamp;pressure;altitude;pressure_sealevel;temperature;humidity
67345;BME280;54230;52.402;6.276;2023-02-13T00:00:00;103870.0;;;7.5;88.9
67345;BME280;54230;52.402;6.276;2023-02-13T00:05:00;103870.0;;;7.5;89.0
67345;BME280;54230;52.402;6.276;2023-02-13T00:10:00;103870.0;;;7.5;88.4
67345;BME280;54230;52.402;6.276;2023-02-13T00:15:00;103859.99999999999;;;7.5;88.8
67345;BME280;54230;52.402;6.276;2023-02-13T00:20:00;103859.99999999999;;;7.5;88.6
67345;BME280;54230;52.402;6.276;2023-02-13T00:25:00;103850.0;;;7.4;88.7
67345;BME280;54230;52.402;6.276;2023-02-13T00:30:00;103840.00000000001;;;7.4;88.9
67345;BME280;54230;52.402;6.276;2023-02-13T00:35:00;103840.00000000001;;;7.4;89.3
67345;BME280;54230;52.402;6.276;2023-02-13T00:40:00;103840.00000000001;;;7.4;89.8
67345;BME280;54230;52.402;6.276;2023-02-13T00:45:00;103840.00000000001;;;7.3;89.9
67345;BME280;54230;52.402;6.276;2023-02-13T00:50:00;103840.00000000001;;;7.4;89.6
67345;BME280;54230;52.402;6.276;2023-02-13T00:55:00;103830.0;;;7.4;89.3
67345;BME280;54230;52.402;6.276;2023-02-13T01:00:01;103840.00000000001;;;7.4;89.3
67345;BME280;54230;52.402;6.276;2023-02-13T01:05:00;103840.00000000001;;;7.3;89.4
67345;BME280;54230;52.402;6.276;2023-02-13T01:10:00;103850.0;;;7.3;89.4
67345;BME280;54230;52.402;6.276;2023-02-13T01:15:00;103840.00000000001;;;7.3;89.3
67345;BME280;54230;52.402;6.276;2023-02-13T01:20:00;103840.00000000001;;;7.2;89.2
67345;BME280;54230;52.402;6.276;2023-02-13T01:25:00;103840.00000000001;;;7.2;89.1
67345;BME280;54230;52.402;6.276;2023-02-13T01:30:00;103840.00000000001;;;7.2;89.6
67345;BME280;54230;52.402;6.276;2023-02-13T01:35:00;103840.00000000001;;;7.2;89.8
67345;BME280;54230;52.402;6.276;2023-02-13T01:40:00;103840.00000000001;;;7.2;90.0
67345;BME280;54230;52.402;6.276;2023-02-13T01:45:04;103840.00000000001;;;7.2;90.3
67345;BME280;54230;52.402;6.276;2023-02-13T01:50:05;103840.00000000001;;;7.2;90.1
67345;BME280;54230;52.402;6.276;2023-02-13T01:55:00;103840.00000000001;;;7.2;90.3
67345;BME280;54230;52.402;6.276;2023-02-13T02:00:02;103840.00000000001;;;7.3;90.2
67345;BME280;54230;52.402;6.276;2023-02-13T02:05:01;103830.0;;;7.2;90.6
67345;BME280;54230;52.402;6.276;2023-02-13T02:10:06;103830.0;;;7.2;90.7
67345;BME280;54230;52.402;6.276;2023-02-13T02:15:03;103820.0;;;7.2;90.8
67345;BME280;54230;52.402;6.276;2023-02-13T02:20:06;103830.0;;;7.2;90.7
67345;BME280;54230;52.402;6.276;2023-02-13T02:25:16;103820.0;;;7.2;91.0
67345;BME280;54230;52.402;6.276;2023-02-13T02:30:19;103820.0;;;7.2;90.8
67345;BME280;54230;52.402;6.276;2023-02-13T02:35:08;103809.99999999999;;;7.1;91.1
67345;BME280;54230;52.402;6.276;2023-02-13T02:40:08;103809.99999999999;;;7.2;91.1
67345;BME280;54230;52.402;6.276;2023-02-13T02:45:04;103809.99999999999;;;7.2;91.2
67345;BME280;54230;52.402;6.276;2023-02-13T02:50:11;103800.0;;;7.2;91.1
67345;BME280;54230;52.402;6.276;2023-02-13T02:55:04;103800.0;;;7.2;90.9
67345;BME280;54230;52.402;6.276;2023-02-13T03:00:00;103780.0;;;7.1;91.0
67345;BME280;54230;52.402;6.276;2023-02-13T03:05:01;103800.0;;;7.2;91.1
67345;BME280;54230;52.402;6.276;2023-02-13T03:10:05;103800.0;;;7.1;91.6
67345;BME280;54230;52.402;6.276;2023-02-13T03:15:00;103800.0;;;7.1;91.5
67345;BME280;54230;52.402;6.276;2023-02-13T03:20:07;103800.0;;;7.1;91.6
67345;BME280;54230;52.402;6.276;2023-02-13T03:25:07;103800.0;;;7.1;91.5
67345;BME280;54230;52.402;6.276;2023-02-13T03:30:05;103790.00000000001;;;7.0;91.4
67345;BME280;54230;52.402;6.276;2023-02-13T03:35:10;103809.99999999999;;;7.1;91.5
67345;BME280;54230;52.402;6.276;2023-02-13T03:40:04;103800.0;;;7.1;91.4
67345;BME280;54230;52.402;6.276;2023-02-13T03:45:03;103800.0;;;7.1;91.3
67345;BME280;54230;52.402;6.276;2023-02-13T03:50:01;103800.0;;;7.1;91.3
67345;BME280;54230;52.402;6.276;2023-02-13T03:55:03;103800.0;;;7.1;91.5
67345;BME280;54230;52.402;6.276;2023-02-13T04:00:02;103780.0;;;7.0;91.6
67345;BME280;54230;52.402;6.276;2023-02-13T04:05:06;103809.99999999999;;;7.1;92.0
67345;BME280;54230;52.402;6.276;2023-02-13T04:10:02;103809.99999999999;;;7.1;92.0
67345;BME280;54230;52.402;6.276;2023-02-13T04:15:03;103800.0;;;7.0;92.4
67345;BME280;54230;52.402;6.276;2023-02-13T04:20:00;103790.00000000001;;;7.1;92.3
67345;BME280;54230;52.402;6.276;2023-02-13T04:25:00;103800.0;;;7.1;92.1
67345;BME280;54230;52.402;6.276;2023-02-13T04:30:00;103800.0;;;7.1;92.2
67345;BME280;54230;52.402;6.276;2023-02-13T04:35:00;103790.00000000001;;;7.1;92.3
67345;BME280;54230;52.402;6.276;2023-02-13T04:40:00;103790.00000000001;;;7.1;92.4
67345;BME280;54230;52.402;6.276;2023-02-13T04:45:00;103790.00000000001;;;7.1;92.7
67345;BME280;54230;52.402;6.276;2023-02-13T04:50:00;103790.00000000001;;;7.1;92.8
67345;BME280;54230;52.402;6.276;2023-02-13T04:55:00;103780.0;;;7.1;93.1
67345;BME280;54230;52.402;6.276;2023-02-13T05:00:00;103770.0;;;7.1;93.4
67345;BME280;54230;52.402;6.276;2023-02-13T05:05:00;103770.0;;;7.0;93.7
67345;BME280;54230;52.402;6.276;2023-02-13T05:10:00;103770.0;;;7.0;93.8
67345;BME280;54230;52.402;6.276;2023-02-13T05:15:00;103770.0;;;7.0;93.9
67345;BME280;54230;52.402;6.276;2023-02-13T05:20:00;103770.0;;;7.0;94.0
67345;BME280;54230;52.402;6.276;2023-02-13T05:25:00;103770.0;;;7.0;94.1
67345;BME280;54230;52.402;6.276;2023-02-13T05:30:00;103770.0;;;7.0;94.1
67345;BME280;54230;52.402;6.276;2023-02-13T05:35:00;103770.0;;;7.0;94.0
67345;BME280;54230;52.402;6.276;2023-02-13T05:40:00;103770.0;;;7.0;94.0
67345;BME280;54230;52.402;6.276;2023-02-13T05:45:00;103770.0;;;7.0;94.0
67345;BME280;54230;52.402;6.276;2023-02-13T05:50:00;103770.0;;;7.1;93.8
67345;BME280;54230;52.402;6.276;2023-02-13T05:55:00;103770.0;;;7.1;93.4
67345;BME280;54230;52.402;6.276;2023-02-13T06:00:00;103770.0;;;7.1;93.1
67345;BME280;54230;52.402;6.276;2023-02-13T06:05:00;103770.0;;;7.1;93.4
67345;BME280;54230;52.402;6.276;2023-02-13T06:10:00;103770.0;;;7.1;93.3
67345;BME280;54230;52.402;6.276;2023-02-13T06:15:00;103780.0;;;7.0;93.8
67345;BME280;54230;52.402;6.276;2023-02-13T06:20:00;103780.0;;;7.1;93.6
67345;BME280;54230;52.402;6.276;2023-02-13T06:25:00;103780.0;;;7.0;94.0
67345;BME280;54230;52.402;6.276;2023-02-13T06:30:00;103780.0;;;7.0;94.1
67345;BME280;54230;52.402;6.276;2023-02-13T06:35:00;103790.00000000001;;;7.0;94.2
67345;BME280;54230;52.402;6.276;2023-02-13T06:40:00;103800.0;;;7.0;94.2
67345;BME280;54230;52.402;6.276;2023-02-13T06:45:01;103800.0;;;7.0;94.1
67345;BME280;54230;52.402;6.276;2023-02-13T06:50:00;103800.0;;;7.0;94.4
67345;BME280;54230;52.402;6.276;2023-02-13T06:55:00;103800.0;;;7.0;94.7
67345;BME280;54230;52.402;6.276;2023-02-13T07:00:01;103809.99999999999;;;7.0;94.6
67345;BME280;54230;52.402;6.276;2023-02-13T07:05:00;103809.99999999999;;;7.0;95.0
67345;BME280;54230;52.402;6.276;2023-02-13T07:10:00;103800.0;;;7.0;95.0
67345;BME280;54230;52.402;6.276;2023-02-13T07:15:00;103820.0;;;7.0;95.1
67345;BME280;54230;52.402;6.276;2023-02-13T07:20:00;103820.0;;;7.0;95.5
67345;BME280;54230;52.402;6.276;2023-02-13T07:25:00;103820.0;;;7.1;95.6
67345;BME280;54230;52.402;6.276;2023-02-13T07:30:00;103830.0;;;7.1;95.2
67345;BME280;54230;52.402;6.276;2023-02-13T07:35:00;103830.0;;;7.1;95.3
67345;BME280;54230;52.402;6.276;2023-02-13T07:40:00;103830.0;;;7.2;95.1
67345;BME280;54230;52.402;6.276;2023-02-13T07:45:00;103830.0;;;7.2;94.9
67345;BME280;54230;52.402;6.276;2023-02-13T07:50:00;103830.0;;;7.2;94.6
67345;BME280;54230;52.402;6.276;2023-02-13T07:55:00;103830.0;;;7.3;94.4
67345;BME280;54230;52.402;6.276;2023-02-13T08:00:00;103840.00000000001;;;7.3;94.1
67345;BME280;54230;52.402;6.276;2023-02-13T08:05:00;103840.00000000001;;;7.4;93.6
67345;BME280;54230;52.402;6.276;2023-02-13T08:10:00;103840.00000000001;;;7.5;93.4
67345;BME280;54230;52.402;6.276;2023-02-13T08:15:00;103840.00000000001;;;7.5;93.1
67345;BME280;54230;52.402;6.276;2023-02-13T08:20:00;103840.00000000001;;;7.6;92.8
67345;BME280;54230;52.402;6.276;2023-02-13T08:25:00;103840.00000000001;;;7.6;92.3
67345;BME280;54230;52.402;6.276;2023-02-13T08:30:00;103850.0;;;7.7;92.2
67345;BME280;54230;52.402;6.276;2023-02-13T08:35:00;103840.00000000001;;;7.7;91.8
67345;BME280;54230;52.402;6.276;2023-02-13T08:40:00;103840.00000000001;;;7.8;91.2
67345;BME280;54230;52.402;6.276;2023-02-13T08:45:00;103850.0;;;7.8;90.8
67345;BME280;54230;52.402;6.276;2023-02-13T08:50:00;103850.0;;;7.9;90.6
67345;BME280;54230;52.402;6.276;2023-02-13T08:55:00;103840.00000000001;;;8.0;90.3
67345;BME280;54230;52.402;6.276;2023-02-13T09:00:00;103840.00000000001;;;8.1;90.1
67345;BME280;54230;52.402;6.276;2023-02-13T09:05:00;103830.0;;;8.1;89.8
67345;BME280;54230;52.402;6.276;2023-02-13T09:10:00;103850.0;;;8.3;89.3
67345;BME280;54230;52.402;6.276;2023-02-13T09:15:00;103850.0;;;8.4;89.0
67345;BME280;54230;52.402;6.276;2023-02-13T09:20:00;103859.99999999999;;;8.5;88.6
67345;BME280;54230;52.402;6.276;2023-02-13T09:25:00;103859.99999999999;;;8.6;88.6
67345;BME280;54230;52.402;6.276;2023-02-13T09:30:01;103859.99999999999;;;8.7;88.1
67345;BME280;54230;52.402;6.276;2023-02-13T09:35:00;103850.0;;;8.8;88.1
67345;BME280;54230;52.402;6.276;2023-02-13T09:40:00;103850.0;;;8.9;87.8
67345;BME280;54230;52.402;6.276;2023-02-13T09:45:03;103850.0;;;9.0;87.0
67345;BME280;54230;52.402;6.276;2023-02-13T09:50:04;103850.0;;;9.0;86.4
67345;BME280;54230;52.402;6.276;2023-02-13T09:55:00;103850.0;;;9.1;85.8
67345;BME280;54230;52.402;6.276;2023-02-13T10:00:06;103850.0;;;9.2;85.1
67345;BME280;54230;52.402;6.276;2023-02-13T10:05:08;103850.0;;;9.4;84.5
67345;BME280;54230;52.402;6.276;2023-02-13T10:10:02;103859.99999999999;;;9.4;84.0
67345;BME280;54230;52.402;6.276;2023-02-13T10:15:12;103859.99999999999;;;9.4;83.5
67345;BME280;54230;52.402;6.276;2023-02-13T10:20:02;103850.0;;;9.3;83.0
67345;BME280;54230;52.402;6.276;2023-02-13T10:25:03;103859.99999999999;;;9.4;82.7
67345;BME280;54230;52.402;6.276;2023-02-13T10:30:02;103850.0;;;9.4;81.8
67345;BME280;54230;52.402;6.276;2023-02-13T10:35:01;103850.0;;;9.6;81.3
67345;BME280;54230;52.402;6.276;2023-02-13T10:40:00;103840.00000000001;;;9.6;81.3
67345;BME280;54230;52.402;6.276;2023-02-13T10:45:09;103840.00000000001;;;9.8;80.6
67345;BME280;54230;52.402;6.276;2023-02-13T10:50:10;103850.0;;;9.8;78.9
67345;BME280;54230;52.402;6.276;2023-02-13T10:55:07;103850.0;;;9.8;78.9
67345;BME280;54230;52.402;6.276;2023-02-13T11:00:09;103840.00000000001;;;9.8;77.7
67345;BME280;54230;52.402;6.276;2023-02-13T11:05:09;103840.00000000001;;;9.8;77.4
67345;BME280;54230;52.402;6.276;2023-02-13T11:10:04;103830.0;;;9.9;77.2
67345;BME280;54230;52.402;6.276;2023-02-13T11:15:02;103840.00000000001;;;9.9;76.4
67345;BME280;54230;52.402;6.276;2023-02-13T11:20:02;103820.0;;;10.1;75.6
67345;BME280;54230;52.402;6.276;2023-02-13T11:25:03;103820.0;;;10.1;75.1
67345;BME280;54230;52.402;6.276;2023-02-13T11:30:02;103809.99999999999;;;10.1;74.8
67345;BME280;54230;52.402;6.276;2023-02-13T11:40:20;103800.0;;;10.3;74.4
67345;BME280;54230;52.402;6.276;2023-02-13T11:45:03;103790.00000000001;;;10.2;74.6
67345;BME280;54230;52.402;6.276;2023-02-13T11:50:00;103790.00000000001;;;10.5;75.1
67345;BME280;54230;52.402;6.276;2023-02-13T11:55:02;103790.00000000001;;;10.6;73.8
67345;BME280;54230;52.402;6.276;2023-02-13T12:05:14;103790.00000000001;;;10.8;73.9
67345;BME280;54230;52.402;6.276;2023-02-13T12:10:06;103790.00000000001;;;10.9;73.2
67345;BME280;54230;52.402;6.276;2023-02-13T12:15:01;103790.00000000001;;;10.9;72.8
67345;BME280;54230;52.402;6.276;2023-02-13T12:20:00;103780.0;;;11.1;72.4
67345;BME280;54230;52.402;6.276;2023-02-13T12:25:15;103770.0;;;11.2;71.8
67345;BME280;54230;52.402;6.276;2023-02-13T12:35:14;103750.0;;;11.3;71.6
67345;BME280;54230;52.402;6.276;2023-02-13T12:40:16;103750.0;;;11.7;70.6
67345;BME280;54230;52.402;6.276;2023-02-13T12:45:08;103740.00000000001;;;11.8;70.1
67345;BME280;54230;52.402;6.276;2023-02-13T12:50:10;103730.0;;;12.0;69.2
67345;BME280;54230;52.402;6.276;2023-02-13T12:55:14;103730.0;;;12.4;67.6
67345;BME280;54230;52.402;6.276;2023-02-13T13:00:08;103730.0;;;12.1;67.6
67345;BME280;54230;52.402;6.276;2023-02-13T13:05:07;103720.0;;;11.6;68.5
67345;BME280;54230;52.402;6.276;2023-02-13T13:10:15;103720.0;;;11.4;69.4
67345;BME280;54230;52.402;6.276;2023-02-13T13:15:06;103720.0;;;11.7;68.9
67345;BME280;54230;52.402;6.276;2023-02-13T13:20:11;103720.0;;;11.8;67.5
67345;BME280;54230;52.402;6.276;2023-02-13T13:25:09;103720.0;;;11.6;67.3
67345;BME280;54230;52.402;6.276;2023-02-13T13:30:04;103709.99999999999;;;11.6;67.7
67345;BME280;54230;52.402;6.276;2023-02-13T13:35:01;103709.99999999999;;;11.8;67.2
67345;BME280;54230;52.402;6.276;2023-02-13T13:40:14;103700.0;;;12.0;67.2
67345;BME280;54230;52.402;6.276;2023-02-13T13:50:00;103690.00000000001;;;12.2;65.6
67345;BME280;54230;52.402;6.276;2023-02-13T13:55:01;103680.0;;;11.8;67.1
67345;BME280;54230;52.402;6.276;2023-02-13T14:05:06;103680.0;;;12.1;66.1
67345;BME280;54230;52.402;6.276;2023-02-13T14:10:00;103680.0;;;11.8;66.9
67345;BME280;54230;52.402;6.276;2023-02-13T14:15:00;103680.0;;;11.8;67.4
67345;BME280;54230;52.402;6.276;2023-02-13T14:20:00;103670.0;;;12.1;67.1
67345;BME280;54230;52.402;6.276;2023-02-13T14:25:03;103659.99999999999;;;12.1;67.2
67345;BME280;54230;52.402;6.276;2023-02-13T14:30:00;103659.99999999999;;;12.3;67.3
67345;BME280;54230;52.402;6.276;2023-02-13T14:35:04;103650.0;;;12.4;67.1
67345;BME280;54230;52.402;6.276;2023-02-13T14:45:03;103650.0;;;12.6;66.7
67345;BME280;54230;52.402;6.276;2023-02-13T14:50:02;103650.0;;;12.7;66.4
67345;BME280;54230;52.402;6.276;2023-02-13T14:55:03;103640.00000000001;;;13.0;66.0
67345;BME280;54230;52.402;6.276;2023-02-13T15:00:06;103640.00000000001;;;13.2;65.1
67345;BME280;54230;52.402;6.276;2023-02-13T15:05:02;103640.00000000001;;;13.3;64.7
67345;BME280;54230;52.402;6.276;2023-02-13T15:10:03;103650.0;;;13.5;63.9
67345;BME280;54230;52.402;6.276;2023-02-13T15:15:02;103640.00000000001;;;13.5;63.9
67345;BME280;54230;52.402;6.276;2023-02-13T15:20:05;103640.00000000001;;;13.7;63.5
67345;BME280;54230;52.402;6.276;2023-02-13T15:25:00;103640.00000000001;;;13.7;62.5
67345;BME280;54230;52.402;6.276;2023-02-13T15:30:03;103640.00000000001;;;13.5;62.9
67345;BME280;54230;52.402;6.276;2023-02-13T15:35:00;103640.00000000001;;;13.5;62.9
67345;BME280;54230;52.402;6.276;2023-02-13T15:40:15;103630.0;;;13.4;62.7
67345;BME280;54230;52.402;6.276;2023-02-13T15:45:00;103620.0;;;13.4;62.4
67345;BME280;54230;52.402;6.276;2023-02-13T15:50:00;103630.0;;;13.3;62.3
67345;BME280;54230;52.402;6.276;2023-02-13T15:55:00;103630.0;;;13.1;62.7
67345;BME280;54230;52.402;6.276;2023-02-13T16:00:01;103630.0;;;12.9;63.4
67345;BME280;54230;52.402;6.276;2023-02-13T16:05:00;103620.0;;;12.6;64.4
67345;BME280;54230;52.402;6.276;2023-02-13T16:10:13;103609.99999999999;;;12.1;65.9
67345;BME280;54230;52.402;6.276;2023-02-13T16:15:01;103609.99999999999;;;11.9;66.9
67345;BME280;54230;52.402;6.276;2023-02-13T16:20:02;103609.99999999999;;;11.5;67.8
67345;BME280;54230;52.402;6.276;2023-02-13T16:45:19;103609.99999999999;;;10.3;74.0
67345;BME280;54230;52.402;6.276;2023-02-13T16:50:00;103609.99999999999;;;10.1;74.5
67345;BME280;54230;52.402;6.276;2023-02-13T16:55:00;103609.99999999999;;;10.0;75.4
67345;BME280;54230;52.402;6.276;2023-02-13T17:00:04;103620.0;;;9.5;76.7
67345;BME280;54230;52.402;6.276;2023-02-13T17:05:14;103609.99999999999;;;9.4;77.5
67345;BME280;54230;52.402;6.276;2023-02-13T17:10:02;103620.0;;;9.2;78.1
67345;BME280;54230;52.402;6.276;2023-02-13T17:15:00;103620.0;;;9.0;79.0
67345;BME280;54230;52.402;6.276;2023-02-13T17:20:00;103620.0;;;8.9;79.5
67345;BME280;54230;52.402;6.276;2023-02-13T17:25:02;103620.0;;;8.8;79.6
67345;BME280;54230;52.402;6.276;2023-02-13T17:30:00;103600.0;;;8.6;79.8
67345;BME280;54230;52.402;6.276;2023-02-13T17:35:00;103600.0;;;8.5;79.9
67345;BME280;54230;52.402;6.276;2023-02-13T17:40:00;103620.0;;;8.5;80.2
67345;BME280;54230;52.402;6.276;2023-02-13T17:45:00;103630.0;;;8.4;80.1
67345;BME280;54230;52.402;6.276;2023-02-13T17:50:00;103630.0;;;8.3;80.5
67345;BME280;54230;52.402;6.276;2023-02-13T17:55:00;103620.0;;;8.1;81.0
67345;BME280;54230;52.402;6.276;2023-02-13T18:00:00;103600.0;;;7.8;81.6
67345;BME280;54230;52.402;6.276;2023-02-13T18:05:00;103630.0;;;7.8;82.2
67345;BME280;54230;52.402;6.276;2023-02-13T18:10:00;103620.0;;;7.7;82.0
67345;BME280;54230;52.402;6.276;2023-02-13T18:15:00;103620.0;;;7.6;82.4
67345;BME280;54230;52.402;6.276;2023-02-13T18:20:00;103630.0;;;7.4;82.5
67345;BME280;54230;52.402;6.276;2023-02-13T18:25:00;103630.0;;;7.3;83.0
67345;BME280;54230;52.402;6.276;2023-02-13T18:30:00;103609.99999999999;;;7.1;83.3
67345;BME280;54230;52.402;6.276;2023-02-13T18:35:00;103630.0;;;7.1;83.8
67345;BME280;54230;52.402;6.276;2023-02-13T18:40:00;103620.0;;;7.0;84.1
67345;BME280;54230;52.402;6.276;2023-02-13T18:45:00;103600.0;;;6.9;84.7
67345;BME280;54230;52.402;6.276;2023-02-13T18:50:00;103620.0;;;6.9;84.6
67345;BME280;54230;52.402;6.276;2023-02-13T18:55:00;103620.0;;;6.9;85.2
67345;BME280;54230;52.402;6.276;2023-02-13T19:00:01;103620.0;;;6.9;85.3
67345;BME280;54230;52.402;6.276;2023-02-13T19:05:00;103609.99999999999;;;6.9;85.4
67345;BME280;54230;52.402;6.276;2023-02-13T19:10:00;103620.0;;;6.8;84.8
67345;BME280;54230;52.402;6.276;2023-02-13T19:15:00;103609.99999999999;;;6.6;84.7
67345;BME280;54230;52.402;6.276;2023-02-13T19:20:00;103609.99999999999;;;6.4;85.0
67345;BME280;54230;52.402;6.276;2023-02-13T19:25:00;103600.0;;;6.4;85.3
67345;BME280;54230;52.402;6.276;2023-02-13T19:30:00;103600.0;;;6.3;85.9
67345;BME280;54230;52.402;6.276;2023-02-13T19:35:00;103600.0;;;6.2;86.7
67345;BME280;54230;52.402;6.276;2023-02-13T19:40:00;103600.0;;;6.2;86.7
67345;BME280;54230;52.402;6.276;2023-02-13T19:45:00;103600.0;;;6.2;86.5
67345;BME280;54230;52.402;6.276;2023-02-13T19:50:00;103590.00000000001;;;6.1;86.5
67345;BME280;54230;52.402;6.276;2023-02-13T19:55:00;103570.0;;;5.9;86.5
67345;BME280;54230;52.402;6.276;2023-02-13T20:00:00;103590.00000000001;;;5.9;86.7
67345;BME280;54230;52.402;6.276;2023-02-13T20:05:00;103590.00000000001;;;5.9;86.9
67345;BME280;54230;52.402;6.276;2023-02-13T20:10:00;103590.00000000001;;;5.7;87.1
67345;BME280;54230;52.402;6.276;2023-02-13T20:15:00;103590.00000000001;;;5.7;87.4
67345;BME280;54230;52.402;6.276;2023-02-13T20:20:00;103600.0;;;5.6;87.5
67345;BME280;54230;52.402;6.276;2023-02-13T20:25:00;103600.0;;;5.5;88.1
67345;BME280;54230;52.402;6.276;2023-02-13T20:30:00;103609.99999999999;;;5.4;88.1
67345;BME280;54230;52.402;6.276;2023-02-13T20:35:00;103609.99999999999;;;5.4;88.2
67345;BME280;54230;52.402;6.276;2023-02-13T20:40:00;103609.99999999999;;;5.3;88.1
67345;BME280;54230;52.402;6.276;2023-02-13T20:45:00;103609.99999999999;;;5.2;88.8
67345;BME280;54230;52.402;6.276;2023-02-13T20:50:00;103609.99999999999;;;5.2;89.4
67345;BME280;54230;52.402;6.276;2023-02-13T20:55:00;103620.0;;;5.2;89.7
67345;BME280;54230;52.402;6.276;2023-02-13T21:00:01;103620.0;;;5.1;90.0
67345;BME280;54230;52.402;6.276;2023-02-13T21:05:00;103609.99999999999;;;5.1;90.5
67345;BME280;54230;52.402;6.276;2023-02-13T21:10:00;103620.0;;;5.0;90.4
67345;BME280;54230;52.402;6.276;2023-02-13T21:15:00;103620.0;;;5.0;90.3
67345;BME280;54230;52.402;6.276;2023-02-13T21:20:00;103609.99999999999;;;5.0;90.1
67345;BME280;54230;52.402;6.276;2023-02-13T21:25:00;103609.99999999999;;;4.9;90.1
67345;BME280;54230;52.402;6.276;2023-02-13T21:30:00;103609.99999999999;;;4.8;90.3
67345;BME280;54230;52.402;6.276;2023-02-13T21:35:00;103620.0;;;4.8;90.5
67345;BME280;54230;52.402;6.276;2023-02-13T21:40:00;103609.99999999999;;;4.8;90.3
67345;BME280;54230;52.402;6.276;2023-02-13T21:45:00;103609.99999999999;;;4.7;90.2
67345;BME280;54230;52.402;6.276;2023-02-13T21:50:00;103620.0;;;4.7;90.5
67345;BME280;54230;52.402;6.276;2023-02-13T21:55:00;103609.99999999999;;;4.6;91.4
67345;BME280;54230;52.402;6.276;2023-02-13T22:00:00;103600.0;;;4.5;91.9
67345;BME280;54230;52.402;6.276;2023-02-13T22:05:00;103609.99999999999;;;4.4;91.8
67345;BME280;54230;52.402;6.276;2023-02-13T22:10:00;103600.0;;;4.3;91.8
67345;BME280;54230;52.402;6.276;2023-02-13T22:15:00;103600.0;;;4.3;91.9
67345;BME280;54230;52.402;6.276;2023-02-13T22:20:00;103600.0;;;4.2;92.0
67345;BME280;54230;52.402;6.276;2023-02-13T22:25:00;103590.00000000001;;;4.2;91.8
67345;BME280;54230;52.402;6.276;2023-02-13T22:30:00;103590.00000000001;;;4.1;92.0
67345;BME280;54230;52.402;6.276;2023-02-13T22:35:00;103580.0;;;4.0;92.1
67345;BME280;54230;52.402;6.276;2023-02-13T22:40:00;103580.0;;;4.0;92.2
67345;BME280;54230;52.402;6.276;2023-02-13T22:45:00;103580.0;;;4.0;92.1
67345;BME280;54230;52.402;6.276;2023-02-13T22:50:00;103580.0;;;3.9;92.0
67345;BME280;54230;52.402;6.276;2023-02-13T22:55:00;103559.99999999999;;;3.7;92.0
67345;BME280;54230;52.402;6.276;2023-02-13T23:00:00;103580.0;;;3.8;92.1
67345;BME280;54230;52.402;6.276;2023-02-13T23:05:00;103580.0;;;3.7;91.7
67345;BME280;54230;52.402;6.276;2023-02-13T23:10:00;103580.0;;;3.6;92.2
67345;BME280;54230;52.402;6.276;2023-02-13T23:15:01;103580.0;;;3.5;92.8
67345;BME280;54230;52.402;6.276;2023-02-13T23:20:00;103580.0;;;3.5;92.6
67345;BME280;54230;52.402;6.276;2023-02-13T23:25:00;103580.0;;;3.3;92.5
67345;BME280;54230;52.402;6.276;2023-02-13T23:30:01;103580.0;;;3.3;92.4
67345;BME280;54230;52.402;6.276;2023-02-13T23:35:00;103580.0;;;3.2;92.1
67345;BME280;54230;52.402;6.276;2023-02-13T23:40:00;103580.0;;;3.2;92.7
67345;BME280;54230;52.402;6.276;2023-02-13T23:45:00;103570.0;;;3.1;92.6
67345;BME280;54230;52.402;6.276;2023-02-13T23:50:00;103580.0;;;3.0;93.3
67345;BME280;54230;52.402;6.276;2023-02-13T23:55:00;103580.0;;;3.0;93.4
